sensor_id;sensor_type;location;lat;lon;timestamp;P1;durP1;ratioP1;P2;durP2;ratioP2
43142;SDS011;28750;59.842;17.584;2023-03-24T00:01:52;17.17;;;2.58;;
43142;SDS011;28750;59.842;17.584;2023-03-24T00:04:20;14.38;;;3.08;;
43142;SDS011;28750;59.842;17.584;2023-03-24T00:06:47;15.93;;;2.75;;
43142;SDS011;28750;59.842;17.584;2023-03-24T00:09:14;14.82;;;2.95;;
43142;SDS011;28750;59.842;17.584;2023-03-24T00:11:42;14.40;;;2.83;;
43142;SDS011;28750;59.842;17.584;2023-03-24T00:14:09;11.55;;;2.28;;
43142;SDS011;28750;59.842;17.584;2023-03-24T00:16:40;13.25;;;2.83;;
43142;SDS011;28750;59.842;17.584;2023-03-24T00:19:10;13.30;;;2.83;;
43142;SDS011;28750;59.842;17.584;2023-03-24T00:21:39;19.08;;;2.80;;
43142;SDS011;28750;59.842;17.584;2023-03-24T00:24:07;11.77;;;2.75;;
43142;SDS011;28750;59.842;17.584;2023-03-24T00:26:37;20.95;;;3.33;;
43142;SDS011;28750;59.842;17.584;2023-03-24T00:29:07;13.13;;;3.13;;
43142;SDS011;28750;59.842;17.584;2023-03-24T00:31:35;13.07;;;3.60;;
43142;SDS011;28750;59.842;17.584;2023-03-24T00:34:05;18.73;;;3.10;;
43142;SDS011;28750;59.842;17.584;2023-03-24T00:36:34;17.37;;;2.70;;
43142;SDS011;28750;59.842;17.584;2023-03-24T00:39:02;13.65;;;2.60;;
43142;SDS011;28750;59.842;17.584;2023-03-24T00:41:30;14.35;;;3.35;;
43142;SDS011;28750;59.842;17.584;2023-03-24T00:43:58;12.73;;;2.63;;
43142;SDS011;28750;59.842;17.584;2023-03-24T00:46:30;17.70;;;3.08;;
43142;SDS011;28750;59.842;17.584;2023-03-24T00:49:02;12.95;;;2.30;;
43142;SDS011;28750;59.842;17.584;2023-03-24T00:51:35;14.98;;;2.55;;
43142;SDS011;28750;59.842;17.584;2023-03-24T00:54:05;16.15;;;2.78;;
43142;SDS011;28750;59.842;17.584;2023-03-24T00:56:35;10.30;;;2.67;;
43142;SDS011;28750;59.842;17.584;2023-03-24T00:59:04;17.67;;;3.40;;
43142;SDS011;28750;59.842;17.584;2023-03-24T01:01:34;12.93;;;2.95;;
43142;SDS011;28750;59.842;17.584;2023-03-24T01:04:02;15.55;;;2.75;;
43142;SDS011;28750;59.842;17.584;2023-03-24T01:06:30;15.88;;;3.42;;
43142;SDS011;28750;59.842;17.584;2023-03-24T01:08:57;12.98;;;3.00;;
43142;SDS011;28750;59.842;17.584;2023-03-24T01:11:27;16.00;;;2.85;;
43142;SDS011;28750;59.842;17.584;2023-03-24T01:13:53;13.18;;;3.13;;
43142;SDS011;28750;59.842;17.584;2023-03-24T01:16:21;14.15;;;3.33;;
43142;SDS011;28750;59.842;17.584;2023-03-24T01:18:50;13.77;;;3.70;;
43142;SDS011;28750;59.842;17.584;2023-03-24T01:21:17;21.95;;;3.47;;
43142;SDS011;28750;59.842;17.584;2023-03-24T01:23:44;21.80;;;3.20;;
43142;SDS011;28750;59.842;17.584;2023-03-24T01:26:11;15.55;;;3.42;;
43142;SDS011;28750;59.842;17.584;2023-03-24T01:28:38;22.60;;;3.40;;
43142;SDS011;28750;59.842;17.584;2023-03-24T01:31:08;16.02;;;2.63;;
43142;SDS011;28750;59.842;17.584;2023-03-24T01:33:36;17.90;;;3.90;;
43142;SDS011;28750;59.842;17.584;2023-03-24T01:36:04;19.25;;;3.78;;
43142;SDS011;28750;59.842;17.584;2023-03-24T01:38:32;11.27;;;2.47;;
43142;SDS011;28750;59.842;17.584;2023-03-24T01:40:59;15.38;;;4.25;;
43142;SDS011;28750;59.842;17.584;2023-03-24T01:43:27;16.98;;;3.42;;
43142;SDS011;28750;59.842;17.584;2023-03-24T01:46:00;17.73;;;4.57;;
43142;SDS011;28750;59.842;17.584;2023-03-24T01:51:27;12.88;;;2.95;;
43142;SDS011;28750;59.842;17.584;2023-03-24T01:54:01;21.95;;;3.03;;
43142;SDS011;28750;59.842;17.584;2023-03-24T01:56:30;13.98;;;3.20;;
43142;SDS011;28750;59.842;17.584;2023-03-24T01:59:01;19.27;;;4.15;;
43142;SDS011;28750;59.842;17.584;2023-03-24T02:01:32;17.85;;;3.33;;
43142;SDS011;28750;59.842;17.584;2023-03-24T02:04:00;15.82;;;3.25;;
43142;SDS011;28750;59.842;17.584;2023-03-24T02:06:31;14.10;;;3.42;;
43142;SDS011;28750;59.842;17.584;2023-03-24T02:09:00;26.25;;;4.63;;
43142;SDS011;28750;59.842;17.584;2023-03-24T02:11:29;13.13;;;2.90;;
43142;SDS011;28750;59.842;17.584;2023-03-24T02:13:58;14.80;;;3.00;;
43142;SDS011;28750;59.842;17.584;2023-03-24T02:28:52;17.40;;;3.30;;
43142;SDS011;28750;59.842;17.584;2023-03-24T02:37:36;19.05;;;4.00;;
43142;SDS011;28750;59.842;17.584;2023-03-24T02:43:20;25.23;;;4.07;;
43142;SDS011;28750;59.842;17.584;2023-03-24T02:46:06;20.65;;;4.00;;
43142;SDS011;28750;59.842;17.584;2023-03-24T02:49:30;22.67;;;3.88;;
43142;SDS011;28750;59.842;17.584;2023-03-24T02:57:56;16.42;;;4.15;;
43142;SDS011;28750;59.842;17.584;2023-03-24T03:00:40;17.42;;;4.40;;
43142;SDS011;28750;59.842;17.584;2023-03-24T03:03:38;19.95;;;3.90;;
43142;SDS011;28750;59.842;17.584;2023-03-24T03:08:48;18.35;;;4.30;;
43142;SDS011;28750;59.842;17.584;2023-03-24T03:11:16;19.83;;;3.90;;
43142;SDS011;28750;59.842;17.584;2023-03-24T03:13:54;21.27;;;3.80;;
43142;SDS011;28750;59.842;17.584;2023-03-24T03:16:33;11.63;;;3.53;;
43142;SDS011;28750;59.842;17.584;2023-03-24T03:19:16;23.70;;;4.85;;
43142;SDS011;28750;59.842;17.584;2023-03-24T03:21:48;19.75;;;4.53;;
43142;SDS011;28750;59.842;17.584;2023-03-24T03:24:24;17.27;;;4.00;;
43142;SDS011;28750;59.842;17.584;2023-03-24T03:27:17;23.77;;;5.38;;
43142;SDS011;28750;59.842;17.584;2023-03-24T03:29:45;31.30;;;4.97;;
43142;SDS011;28750;59.842;17.584;2023-03-24T03:32:37;24.67;;;3.92;;
43142;SDS011;28750;59.842;17.584;2023-03-24T03:40:40;18.38;;;3.88;;
43142;SDS011;28750;59.842;17.584;2023-03-24T03:43:20;23.92;;;4.25;;
43142;SDS011;28750;59.842;17.584;2023-03-24T03:45:47;19.77;;;3.80;;
43142;SDS011;28750;59.842;17.584;2023-03-24T03:48:15;33.65;;;5.35;;
43142;SDS011;28750;59.842;17.584;2023-03-24T03:50:43;20.88;;;4.43;;
43142;SDS011;28750;59.842;17.584;2023-03-24T03:53:12;15.77;;;3.67;;
43142;SDS011;28750;59.842;17.584;2023-03-24T03:55:42;10.40;;;2.90;;
43142;SDS011;28750;59.842;17.584;2023-03-24T03:58:10;21.38;;;3.40;;
43142;SDS011;28750;59.842;17.584;2023-03-24T04:00:37;21.20;;;4.15;;
43142;SDS011;28750;59.842;17.584;2023-03-24T04:06:00;19.77;;;4.35;;
43142;SDS011;28750;59.842;17.584;2023-03-24T04:08:56;17.00;;;3.45;;
43142;SDS011;28750;59.842;17.584;2023-03-24T04:19:54;18.77;;;3.70;;
43142;SDS011;28750;59.842;17.584;2023-03-24T04:23:00;19.17;;;3.78;;
43142;SDS011;28750;59.842;17.584;2023-03-24T04:31:26;16.10;;;3.97;;
43142;SDS011;28750;59.842;17.584;2023-03-24T04:36:41;17.75;;;3.85;;
43142;SDS011;28750;59.842;17.584;2023-03-24T04:39:13;17.65;;;3.85;;
43142;SDS011;28750;59.842;17.584;2023-03-24T04:41:49;17.83;;;4.70;;
43142;SDS011;28750;59.842;17.584;2023-03-24T04:44:17;17.63;;;3.70;;
43142;SDS011;28750;59.842;17.584;2023-03-24T04:46:47;26.50;;;4.25;;
43142;SDS011;28750;59.842;17.584;2023-03-24T04:49:16;21.35;;;3.55;;
43142;SDS011;28750;59.842;17.584;2023-03-24T04:51:44;24.58;;;3.92;;
43142;SDS011;28750;59.842;17.584;2023-03-24T04:54:11;19.00;;;3.53;;
43142;SDS011;28750;59.842;17.584;2023-03-24T04:56:45;19.98;;;4.00;;
43142;SDS011;28750;59.842;17.584;2023-03-24T04:59:15;26.75;;;4.22;;
43142;SDS011;28750;59.842;17.584;2023-03-24T05:01:43;13.57;;;3.10;;
43142;SDS011;28750;59.842;17.584;2023-03-24T05:06:41;21.60;;;3.97;;
43142;SDS011;28750;59.842;17.584;2023-03-24T05:09:11;22.65;;;4.47;;
43142;SDS011;28750;59.842;17.584;2023-03-24T05:11:39;22.70;;;3.90;;
43142;SDS011;28750;59.842;17.584;2023-03-24T05:14:06;19.73;;;4.03;;
43142;SDS011;28750;59.842;17.584;2023-03-24T05:16:33;18.88;;;2.80;;
43142;SDS011;28750;59.842;17.584;2023-03-24T05:19:01;15.32;;;3.55;;
43142;SDS011;28750;59.842;17.584;2023-03-24T05:21:28;16.88;;;3.20;;
43142;SDS011;28750;59.842;17.584;2023-03-24T05:23:56;9.75;;;3.08;;
43142;SDS011;28750;59.842;17.584;2023-03-24T05:26:22;28.67;;;4.60;;
43142;SDS011;28750;59.842;17.584;2023-03-24T05:28:50;21.05;;;4.30;;
43142;SDS011;28750;59.842;17.584;2023-03-24T05:31:18;17.80;;;3.55;;
43142;SDS011;28750;59.842;17.584;2023-03-24T05:33:45;20.10;;;4.15;;
43142;SDS011;28750;59.842;17.584;2023-03-24T05:36:12;20.55;;;3.80;;
43142;SDS011;28750;59.842;17.584;2023-03-24T05:38:40;14.00;;;3.78;;
43142;SDS011;28750;59.842;17.584;2023-03-24T05:41:07;14.05;;;3.28;;
43142;SDS011;28750;59.842;17.584;2023-03-24T05:43:34;19.85;;;3.58;;
43142;SDS011;28750;59.842;17.584;2023-03-24T05:46:01;17.42;;;3.15;;
43142;SDS011;28750;59.842;17.584;2023-03-24T05:48:28;15.20;;;3.53;;
43142;SDS011;28750;59.842;17.584;2023-03-24T05:50:55;24.92;;;4.05;;
43142;SDS011;28750;59.842;17.584;2023-03-24T05:53:22;11.82;;;3.13;;
43142;SDS011;28750;59.842;17.584;2023-03-24T05:55:49;16.75;;;2.88;;
43142;SDS011;28750;59.842;17.584;2023-03-24T05:58:17;15.13;;;3.60;;
43142;SDS011;28750;59.842;17.584;2023-03-24T06:00:45;18.80;;;3.60;;
43142;SDS011;28750;59.842;17.584;2023-03-24T06:03:12;9.85;;;3.03;;
43142;SDS011;28750;59.842;17.584;2023-03-24T06:05:41;13.95;;;3.28;;
43142;SDS011;28750;59.842;17.584;2023-03-24T06:08:10;19.05;;;2.95;;
43142;SDS011;28750;59.842;17.584;2023-03-24T06:10:37;14.32;;;2.95;;
43142;SDS011;28750;59.842;17.584;2023-03-24T06:13:04;9.43;;;2.50;;
43142;SDS011;28750;59.842;17.584;2023-03-24T06:15:33;12.13;;;2.80;;
43142;SDS011;28750;59.842;17.584;2023-03-24T06:18:00;11.93;;;2.55;;
43142;SDS011;28750;59.842;17.584;2023-03-24T06:20:29;13.68;;;2.90;;
43142;SDS011;28750;59.842;17.584;2023-03-24T06:22:56;13.52;;;2.50;;
43142;SDS011;28750;59.842;17.584;2023-03-24T06:25:23;12.70;;;2.97;;
43142;SDS011;28750;59.842;17.584;2023-03-24T06:27:52;11.73;;;2.72;;
43142;SDS011;28750;59.842;17.584;2023-03-24T06:30:19;13.52;;;3.22;;
43142;SDS011;28750;59.842;17.584;2023-03-24T06:32:46;13.90;;;2.70;;
43142;SDS011;28750;59.842;17.584;2023-03-24T06:35:14;14.90;;;3.78;;
43142;SDS011;28750;59.842;17.584;2023-03-24T06:37:42;16.55;;;2.75;;
43142;SDS011;28750;59.842;17.584;2023-03-24T06:40:10;9.10;;;2.80;;
43142;SDS011;28750;59.842;17.584;2023-03-24T06:42:39;10.02;;;2.53;;
43142;SDS011;28750;59.842;17.584;2023-03-24T06:45:07;11.05;;;2.72;;
43142;SDS011;28750;59.842;17.584;2023-03-24T06:47:35;10.80;;;3.33;;
43142;SDS011;28750;59.842;17.584;2023-03-24T06:50:02;13.23;;;2.38;;
43142;SDS011;28750;59.842;17.584;2023-03-24T06:52:31;17.98;;;2.95;;
43142;SDS011;28750;59.842;17.584;2023-03-24T06:54:58;14.88;;;3.15;;
43142;SDS011;28750;59.842;17.584;2023-03-24T06:57:25;13.30;;;3.47;;
43142;SDS011;28750;59.842;17.584;2023-03-24T06:59:53;13.18;;;2.67;;
43142;SDS011;28750;59.842;17.584;2023-03-24T07:02:20;16.25;;;3.88;;
43142;SDS011;28750;59.842;17.584;2023-03-24T07:04:47;10.90;;;3.00;;
43142;SDS011;28750;59.842;17.584;2023-03-24T07:07:14;17.65;;;3.20;;
43142;SDS011;28750;59.842;17.584;2023-03-24T07:09:42;11.35;;;3.08;;
43142;SDS011;28750;59.842;17.584;2023-03-24T07:12:09;14.15;;;3.80;;
43142;SDS011;28750;59.842;17.584;2023-03-24T07:14:37;13.25;;;3.08;;
43142;SDS011;28750;59.842;17.584;2023-03-24T07:17:04;18.13;;;4.47;;
43142;SDS011;28750;59.842;17.584;2023-03-24T07:19:30;16.33;;;3.22;;
43142;SDS011;28750;59.842;17.584;2023-03-24T07:21:57;8.00;;;2.83;;
43142;SDS011;28750;59.842;17.584;2023-03-24T07:24:24;37.95;;;4.18;;
43142;SDS011;28750;59.842;17.584;2023-03-24T07:26:51;12.40;;;2.75;;
43142;SDS011;28750;59.842;17.584;2023-03-24T07:29:18;14.77;;;3.13;;
43142;SDS011;28750;59.842;17.584;2023-03-24T07:31:45;21.45;;;3.65;;
43142;SDS011;28750;59.842;17.584;2023-03-24T07:34:12;21.00;;;3.45;;
43142;SDS011;28750;59.842;17.584;2023-03-24T07:36:39;12.55;;;3.40;;
43142;SDS011;28750;59.842;17.584;2023-03-24T07:39:06;14.02;;;4.03;;
43142;SDS011;28750;59.842;17.584;2023-03-24T07:41:33;12.55;;;3.65;;
43142;SDS011;28750;59.842;17.584;2023-03-24T07:44:00;15.63;;;4.10;;
43142;SDS011;28750;59.842;17.584;2023-03-24T07:46:27;15.85;;;4.05;;
43142;SDS011;28750;59.842;17.584;2023-03-24T07:48:54;14.82;;;3.38;;
43142;SDS011;28750;59.842;17.584;2023-03-24T07:51:21;16.65;;;3.78;;
43142;SDS011;28750;59.842;17.584;2023-03-24T07:53:48;15.43;;;3.75;;
43142;SDS011;28750;59.842;17.584;2023-03-24T07:56:15;21.52;;;3.58;;
43142;SDS011;28750;59.842;17.584;2023-03-24T07:58:42;18.92;;;4.57;;
43142;SDS011;28750;59.842;17.584;2023-03-24T08:01:09;16.08;;;4.10;;
43142;SDS011;28750;59.842;17.584;2023-03-24T08:03:36;16.48;;;3.90;;
43142;SDS011;28750;59.842;17.584;2023-03-24T08:06:05;17.55;;;4.45;;
43142;SDS011;28750;59.842;17.584;2023-03-24T08:08:34;18.10;;;3.45;;
43142;SDS011;28750;59.842;17.584;2023-03-24T08:11:02;15.70;;;3.33;;
43142;SDS011;28750;59.842;17.584;2023-03-24T08:13:30;19.58;;;3.78;;
43142;SDS011;28750;59.842;17.584;2023-03-24T08:15:57;13.05;;;3.55;;
43142;SDS011;28750;59.842;17.584;2023-03-24T08:18:24;17.83;;;4.00;;
43142;SDS011;28750;59.842;17.584;2023-03-24T08:20:55;13.20;;;3.97;;
43142;SDS011;28750;59.842;17.584;2023-03-24T08:23:25;11.90;;;3.08;;
43142;SDS011;28750;59.842;17.584;2023-03-24T08:25:52;17.98;;;4.72;;
43142;SDS011;28750;59.842;17.584;2023-03-24T08:28:20;19.23;;;3.97;;
43142;SDS011;28750;59.842;17.584;2023-03-24T08:30:47;17.83;;;4.35;;
43142;SDS011;28750;59.842;17.584;2023-03-24T08:33:14;14.10;;;3.10;;
43142;SDS011;28750;59.842;17.584;2023-03-24T08:35:41;13.20;;;3.60;;
43142;SDS011;28750;59.842;17.584;2023-03-24T08:38:11;12.93;;;3.35;;
43142;SDS011;28750;59.842;17.584;2023-03-24T08:40:39;18.75;;;3.63;;
43142;SDS011;28750;59.842;17.584;2023-03-24T08:43:09;11.70;;;3.28;;
43142;SDS011;28750;59.842;17.584;2023-03-24T08:45:40;15.75;;;3.20;;
43142;SDS011;28750;59.842;17.584;2023-03-24T08:48:07;15.88;;;3.78;;
43142;SDS011;28750;59.842;17.584;2023-03-24T08:50:36;11.88;;;3.15;;
43142;SDS011;28750;59.842;17.584;2023-03-24T08:53:06;18.58;;;3.72;;
43142;SDS011;28750;59.842;17.584;2023-03-24T08:55:33;11.18;;;3.40;;
43142;SDS011;28750;59.842;17.584;2023-03-24T08:58:06;10.57;;;3.28;;
43142;SDS011;28750;59.842;17.584;2023-03-24T09:00:35;13.57;;;3.50;;
43142;SDS011;28750;59.842;17.584;2023-03-24T09:03:02;16.92;;;2.95;;
43142;SDS011;28750;59.842;17.584;2023-03-24T09:05:31;8.20;;;2.72;;
43142;SDS011;28750;59.842;17.584;2023-03-24T09:07:58;15.10;;;3.70;;
43142;SDS011;28750;59.842;17.584;2023-03-24T09:10:25;7.70;;;2.72;;
43142;SDS011;28750;59.842;17.584;2023-03-24T09:12:52;12.02;;;2.42;;
43142;SDS011;28750;59.842;17.584;2023-03-24T09:15:19;16.75;;;3.25;;
43142;SDS011;28750;59.842;17.584;2023-03-24T09:17:46;14.48;;;3.55;;
43142;SDS011;28750;59.842;17.584;2023-03-24T09:20:13;13.80;;;2.63;;
43142;SDS011;28750;59.842;17.584;2023-03-24T09:22:43;11.45;;;3.15;;
43142;SDS011;28750;59.842;17.584;2023-03-24T09:25:13;14.52;;;2.65;;
43142;SDS011;28750;59.842;17.584;2023-03-24T09:27:42;10.68;;;2.90;;
43142;SDS011;28750;59.842;17.584;2023-03-24T09:30:09;11.43;;;2.72;;
43142;SDS011;28750;59.842;17.584;2023-03-24T09:32:38;11.55;;;3.08;;
43142;SDS011;28750;59.842;17.584;2023-03-24T09:35:05;12.82;;;2.75;;
43142;SDS011;28750;59.842;17.584;2023-03-24T09:37:33;13.75;;;3.75;;
43142;SDS011;28750;59.842;17.584;2023-03-24T09:40:02;12.85;;;3.25;;
43142;SDS011;28750;59.842;17.584;2023-03-24T09:42:31;10.52;;;2.75;;
43142;SDS011;28750;59.842;17.584;2023-03-24T09:45:05;10.77;;;3.08;;
43142;SDS011;28750;59.842;17.584;2023-03-24T09:47:39;14.15;;;3.22;;
43142;SDS011;28750;59.842;17.584;2023-03-24T09:53:08;10.43;;;2.95;;
43142;SDS011;28750;59.842;17.584;2023-03-24T09:55:46;14.35;;;3.53;;
43142;SDS011;28750;59.842;17.584;2023-03-24T09:58:14;11.90;;;3.30;;
43142;SDS011;28750;59.842;17.584;2023-03-24T10:00:43;15.05;;;3.33;;
43142;SDS011;28750;59.842;17.584;2023-03-24T10:03:13;14.60;;;3.20;;
43142;SDS011;28750;59.842;17.584;2023-03-24T10:08:27;9.97;;;2.70;;
43142;SDS011;28750;59.842;17.584;2023-03-24T10:25:42;10.50;;;2.25;;
43142;SDS011;28750;59.842;17.584;2023-03-24T10:28:14;12.95;;;2.85;;
43142;SDS011;28750;59.842;17.584;2023-03-24T10:31:02;9.48;;;2.60;;
43142;SDS011;28750;59.842;17.584;2023-03-24T10:33:35;8.63;;;2.42;;
43142;SDS011;28750;59.842;17.584;2023-03-24T10:36:08;9.90;;;2.72;;
43142;SDS011;28750;59.842;17.584;2023-03-24T10:38:42;7.72;;;2.65;;
43142;SDS011;28750;59.842;17.584;2023-03-24T10:41:14;7.03;;;2.35;;
43142;SDS011;28750;59.842;17.584;2023-03-24T10:43:45;8.25;;;3.05;;
43142;SDS011;28750;59.842;17.584;2023-03-24T10:46:13;5.18;;;2.20;;
43142;SDS011;28750;59.842;17.584;2023-03-24T10:48:47;8.75;;;2.30;;
43142;SDS011;28750;59.842;17.584;2023-03-24T10:51:18;13.13;;;3.10;;
43142;SDS011;28750;59.842;17.584;2023-03-24T10:53:50;7.00;;;2.28;;
43142;SDS011;28750;59.842;17.584;2023-03-24T10:56:49;16.65;;;3.20;;
43142;SDS011;28750;59.842;17.584;2023-03-24T10:59:31;9.32;;;2.50;;
43142;SDS011;28750;59.842;17.584;2023-03-24T11:04:36;7.85;;;2.55;;
43142;SDS011;28750;59.842;17.584;2023-03-24T11:07:06;10.52;;;2.72;;
43142;SDS011;28750;59.842;17.584;2023-03-24T11:09:43;9.13;;;2.10;;
43142;SDS011;28750;59.842;17.584;2023-03-24T11:12:25;10.70;;;2.90;;
43142;SDS011;28750;59.842;17.584;2023-03-24T11:15:00;7.20;;;2.65;;
43142;SDS011;28750;59.842;17.584;2023-03-24T11:17:40;15.75;;;3.30;;
43142;SDS011;28750;59.842;17.584;2023-03-24T11:20:14;12.35;;;3.00;;
43142;SDS011;28750;59.842;17.584;2023-03-24T11:23:00;11.50;;;2.95;;
43142;SDS011;28750;59.842;17.584;2023-03-24T11:25:49;14.32;;;3.25;;
43142;SDS011;28750;59.842;17.584;2023-03-24T11:28:33;13.68;;;2.75;;
43142;SDS011;28750;59.842;17.584;2023-03-24T11:31:08;20.48;;;3.60;;
43142;SDS011;28750;59.842;17.584;2023-03-24T11:33:44;11.13;;;3.42;;
43142;SDS011;28750;59.842;17.584;2023-03-24T11:36:38;18.27;;;3.78;;
43142;SDS011;28750;59.842;17.584;2023-03-24T11:41:49;10.68;;;3.83;;
43142;SDS011;28750;59.842;17.584;2023-03-24T11:44:23;17.23;;;4.07;;
43142;SDS011;28750;59.842;17.584;2023-03-24T11:46:54;7.82;;;2.80;;
43142;SDS011;28750;59.842;17.584;2023-03-24T11:49:30;10.77;;;2.90;;
43142;SDS011;28750;59.842;17.584;2023-03-24T11:52:00;11.70;;;3.22;;
43142;SDS011;28750;59.842;17.584;2023-03-24T11:54:30;15.45;;;3.80;;
43142;SDS011;28750;59.842;17.584;2023-03-24T11:57:02;12.23;;;3.60;;
43142;SDS011;28750;59.842;17.584;2023-03-24T12:13:31;12.05;;;3.42;;
43142;SDS011;28750;59.842;17.584;2023-03-24T12:22:10;16.25;;;4.32;;
43142;SDS011;28750;59.842;17.584;2023-03-24T12:33:50;16.02;;;4.57;;
43142;SDS011;28750;59.842;17.584;2023-03-24T12:39:27;14.07;;;3.88;;
43142;SDS011;28750;59.842;17.584;2023-03-24T12:50:01;17.40;;;3.97;;
43142;SDS011;28750;59.842;17.584;2023-03-24T12:58:16;20.20;;;4.10;;
43142;SDS011;28750;59.842;17.584;2023-03-24T13:03:39;14.63;;;3.60;;
43142;SDS011;28750;59.842;17.584;2023-03-24T13:11:37;15.57;;;3.92;;
43142;SDS011;28750;59.842;17.584;2023-03-24T13:14:15;16.55;;;3.92;;
43142;SDS011;28750;59.842;17.584;2023-03-24T13:16:47;21.58;;;4.00;;
43142;SDS011;28750;59.842;17.584;2023-03-24T13:19:17;13.23;;;3.83;;
43142;SDS011;28750;59.842;17.584;2023-03-24T13:21:47;14.07;;;3.97;;
43142;SDS011;28750;59.842;17.584;2023-03-24T13:24:16;20.98;;;3.95;;
43142;SDS011;28750;59.842;17.584;2023-03-24T13:35:18;13.43;;;3.92;;
43142;SDS011;28750;59.842;17.584;2023-03-24T13:37:51;17.35;;;4.13;;
43142;SDS011;28750;59.842;17.584;2023-03-24T13:40:23;20.08;;;4.18;;
43142;SDS011;28750;59.842;17.584;2023-03-24T13:43:00;20.65;;;4.80;;
43142;SDS011;28750;59.842;17.584;2023-03-24T13:45:46;18.23;;;4.88;;
43142;SDS011;28750;59.842;17.584;2023-03-24T14:07:50;18.13;;;4.47;;
43142;SDS011;28750;59.842;17.584;2023-03-24T14:28:50;12.77;;;3.63;;
43142;SDS011;28750;59.842;17.584;2023-03-24T14:31:20;11.88;;;4.07;;
43142;SDS011;28750;59.842;17.584;2023-03-24T14:36:30;14.52;;;4.40;;
43142;SDS011;28750;59.842;17.584;2023-03-24T14:39:06;15.45;;;3.95;;
43142;SDS011;28750;59.842;17.584;2023-03-24T14:41:39;10.95;;;3.40;;
43142;SDS011;28750;59.842;17.584;2023-03-24T14:57:45;14.73;;;4.95;;
43142;SDS011;28750;59.842;17.584;2023-03-24T15:03:09;9.32;;;3.47;;
43142;SDS011;28750;59.842;17.584;2023-03-24T15:05:48;10.23;;;3.55;;
43142;SDS011;28750;59.842;17.584;2023-03-24T15:08:16;8.95;;;2.67;;
43142;SDS011;28750;59.842;17.584;2023-03-24T15:10:52;5.97;;;2.58;;
43142;SDS011;28750;59.842;17.584;2023-03-24T15:13:38;9.00;;;3.23;;
43142;SDS011;28750;59.842;17.584;2023-03-24T15:16:16;9.95;;;3.28;;
43142;SDS011;28750;59.842;17.584;2023-03-24T15:18:55;13.88;;;4.32;;
43142;SDS011;28750;59.842;17.584;2023-03-24T15:21:55;8.15;;;3.00;;
43142;SDS011;28750;59.842;17.584;2023-03-24T15:24:29;10.75;;;3.00;;
43142;SDS011;28750;59.842;17.584;2023-03-24T15:29:38;6.82;;;2.33;;
43142;SDS011;28750;59.842;17.584;2023-03-24T15:32:17;7.20;;;2.80;;
43142;SDS011;28750;59.842;17.584;2023-03-24T15:34:50;6.90;;;2.30;;
43142;SDS011;28750;59.842;17.584;2023-03-24T15:37:43;6.03;;;3.05;;
43142;SDS011;28750;59.842;17.584;2023-03-24T15:42:55;4.97;;;2.03;;
43142;SDS011;28750;59.842;17.584;2023-03-24T15:47:55;6.82;;;1.77;;
43142;SDS011;28750;59.842;17.584;2023-03-24T15:50:34;7.38;;;2.30;;
43142;SDS011;28750;59.842;17.584;2023-03-24T15:53:20;5.70;;;2.65;;
43142;SDS011;28750;59.842;17.584;2023-03-24T15:56:05;4.72;;;1.95;;
43142;SDS011;28750;59.842;17.584;2023-03-24T15:58:52;8.52;;;2.83;;
43142;SDS011;28750;59.842;17.584;2023-03-24T16:01:25;3.70;;;2.25;;
43142;SDS011;28750;59.842;17.584;2023-03-24T16:04:33;6.70;;;1.90;;
43142;SDS011;28750;59.842;17.584;2023-03-24T16:06:55;3.45;;;1.60;;
43142;SDS011;28750;59.842;17.584;2023-03-24T16:09:23;9.88;;;1.95;;
43142;SDS011;28750;59.842;17.584;2023-03-24T16:11:52;2.17;;;1.10;;
43142;SDS011;28750;59.842;17.584;2023-03-24T16:16:54;3.33;;;1.30;;
43142;SDS011;28750;59.842;17.584;2023-03-24T16:19:23;2.25;;;0.82;;
43142;SDS011;28750;59.842;17.584;2023-03-24T16:21:50;2.80;;;1.02;;
43142;SDS011;28750;59.842;17.584;2023-03-24T16:24:18;2.13;;;0.95;;
43142;SDS011;28750;59.842;17.584;2023-03-24T16:26:46;3.53;;;1.27;;
43142;SDS011;28750;59.842;17.584;2023-03-24T16:29:15;1.05;;;0.93;;
43142;SDS011;28750;59.842;17.584;2023-03-24T16:31:45;3.42;;;1.00;;
43142;SDS011;28750;59.842;17.584;2023-03-24T16:34:14;1.83;;;0.73;;
43142;SDS011;28750;59.842;17.584;2023-03-24T16:36:43;1.83;;;0.70;;
43142;SDS011;28750;59.842;17.584;2023-03-24T16:39:15;2.17;;;0.52;;
43142;SDS011;28750;59.842;17.584;2023-03-24T16:41:53;6.50;;;0.80;;
43142;SDS011;28750;59.842;17.584;2023-03-24T16:44:21;3.05;;;0.70;;
43142;SDS011;28750;59.842;17.584;2023-03-24T16:46:51;2.15;;;0.90;;
43142;SDS011;28750;59.842;17.584;2023-03-24T16:49:19;1.38;;;0.68;;
43142;SDS011;28750;59.842;17.584;2023-03-24T16:51:47;0.98;;;0.68;;
43142;SDS011;28750;59.842;17.584;2023-03-24T16:54:16;0.73;;;0.70;;
43142;SDS011;28750;59.842;17.584;2023-03-24T16:56:44;1.02;;;0.70;;
43142;SDS011;28750;59.842;17.584;2023-03-24T16:59:10;3.70;;;0.90;;
43142;SDS011;28750;59.842;17.584;2023-03-24T17:01:43;1.17;;;0.68;;
43142;SDS011;28750;59.842;17.584;2023-03-24T17:04:15;2.42;;;1.00;;
43142;SDS011;28750;59.842;17.584;2023-03-24T17:06:45;0.57;;;0.55;;
43142;SDS011;28750;59.842;17.584;2023-03-24T17:09:17;0.73;;;0.52;;
43142;SDS011;28750;59.842;17.584;2023-03-24T17:11:49;1.15;;;0.68;;
43142;SDS011;28750;59.842;17.584;2023-03-24T17:14:18;1.33;;;0.50;;
43142;SDS011;28750;59.842;17.584;2023-03-24T17:16:46;1.27;;;0.70;;
43142;SDS011;28750;59.842;17.584;2023-03-24T17:19:18;0.60;;;0.60;;
43142;SDS011;28750;59.842;17.584;2023-03-24T17:24:23;1.10;;;0.77;;
43142;SDS011;28750;59.842;17.584;2023-03-24T17:26:50;1.88;;;0.80;;
43142;SDS011;28750;59.842;17.584;2023-03-24T17:29:17;0.80;;;0.70;;
43142;SDS011;28750;59.842;17.584;2023-03-24T17:31:44;1.17;;;0.63;;
43142;SDS011;28750;59.842;17.584;2023-03-24T17:34:11;1.17;;;0.80;;
43142;SDS011;28750;59.842;17.584;2023-03-24T17:36:42;3.38;;;0.80;;
43142;SDS011;28750;59.842;17.584;2023-03-24T17:39:09;1.30;;;1.00;;
43142;SDS011;28750;59.842;17.584;2023-03-24T17:41:42;1.10;;;1.00;;
43142;SDS011;28750;59.842;17.584;2023-03-24T17:44:09;1.05;;;0.90;;
43142;SDS011;28750;59.842;17.584;2023-03-24T17:46:36;1.35;;;1.25;;
43142;SDS011;28750;59.842;17.584;2023-03-24T17:49:03;1.52;;;1.42;;
43142;SDS011;28750;59.842;17.584;2023-03-24T17:51:30;1.30;;;1.20;;
43142;SDS011;28750;59.842;17.584;2023-03-24T17:53:57;1.60;;;1.50;;
43142;SDS011;28750;59.842;17.584;2023-03-24T17:56:24;1.88;;;1.77;;
43142;SDS011;28750;59.842;17.584;2023-03-24T17:58:51;1.73;;;1.63;;
43142;SDS011;28750;59.842;17.584;2023-03-24T18:01:20;2.15;;;1.63;;
43142;SDS011;28750;59.842;17.584;2023-03-24T18:03:47;2.20;;;2.00;;
43142;SDS011;28750;59.842;17.584;2023-03-24T18:06:14;2.50;;;1.75;;
43142;SDS011;28750;59.842;17.584;2023-03-24T18:08:41;1.90;;;1.60;;
43142;SDS011;28750;59.842;17.584;2023-03-24T18:11:09;2.03;;;1.83;;
43142;SDS011;28750;59.842;17.584;2023-03-24T18:13:39;2.08;;;1.98;;
43142;SDS011;28750;59.842;17.584;2023-03-24T18:16:07;2.30;;;2.10;;
43142;SDS011;28750;59.842;17.584;2023-03-24T18:18:35;2.45;;;2.08;;
43142;SDS011;28750;59.842;17.584;2023-03-24T18:21:03;4.25;;;2.40;;
43142;SDS011;28750;59.842;17.584;2023-03-24T18:23:32;2.17;;;2.00;;
43142;SDS011;28750;59.842;17.584;2023-03-24T18:26:02;2.10;;;1.90;;
43142;SDS011;28750;59.842;17.584;2023-03-24T18:28:32;2.72;;;2.13;;